sensor_id;sensor_type;location;lat;lon;timestamp;temperature;humidity
7654;DHT22;3869;48.406;10.774;2023-06-24T00:00:03;17.80;99.90
7654;DHT22;3869;48.406;10.774;2023-06-24T00:02:35;17.80;99.90
7654;DHT22;3869;48.406;10.774;2023-06-24T00:05:05;17.70;99.90
7654;DHT22;3869;48.406;10.774;2023-06-24T00:07:35;17.70;99.90
7654;DHT22;3869;48.406;10.774;2023-06-24T00:10:11;17.70;99.90
7654;DHT22;3869;48.406;10.774;2023-06-24T00:12:40;17.70;99.90
7654;DHT22;3869;48.406;10.774;2023-06-24T00:15:09;17.70;99.90
7654;DHT22;3869;48.406;10.774;2023-06-24T00:17:37;17.60;99.90
7654;DHT22;3869;48.406;10.774;2023-06-24T00:20:07;17.50;99.90
7654;DHT22;3869;48.406;10.774;2023-06-24T00:22:38;17.60;99.90
7654;DHT22;3869;48.406;10.774;2023-06-24T00:25:11;17.60;99.90
7654;DHT22;3869;48.406;10.774;2023-06-24T00:27:39;17.70;99.90
7654;DHT22;3869;48.406;10.774;2023-06-24T00:30:08;17.70;99.90
7654;DHT22;3869;48.406;10.774;2023-06-24T00:32:36;17.70;99.90
7654;DHT22;3869;48.406;10.774;2023-06-24T00:35:07;17.70;99.90
7654;DHT22;3869;48.406;10.774;2023-06-24T00:37:35;17.70;99.90
7654;DHT22;3869;48.406;10.774;2023-06-24T00:40:04;17.80;99.90
7654;DHT22;3869;48.406;10.774;2023-06-24T00:42:33;17.70;99.90
7654;DHT22;3869;48.406;10.774;2023-06-24T00:45:01;17.70;99.90
7654;DHT22;3869;48.406;10.774;2023-06-24T00:47:31;17.80;99.90
7654;DHT22;3869;48.406;10.774;2023-06-24T00:50:02;17.80;99.90
7654;DHT22;3869;48.406;10.774;2023-06-24T00:52:31;17.80;99.90
7654;DHT22;3869;48.406;10.774;2023-06-24T00:55:00;17.80;99.90
7654;DHT22;3869;48.406;10.774;2023-06-24T00:57:30;17.80;99.90
7654;DHT22;3869;48.406;10.774;2023-06-24T00:59:59;17.70;99.90
7654;DHT22;3869;48.406;10.774;2023-06-24T01:02:27;17.70;99.90
7654;DHT22;3869;48.406;10.774;2023-06-24T01:04:55;17.70;99.90
7654;DHT22;3869;48.406;10.774;2023-06-24T01:07:24;17.70;99.90
7654;DHT22;3869;48.406;10.774;2023-06-24T01:09:53;17.70;99.90
7654;DHT22;3869;48.406;10.774;2023-06-24T01:12:21;17.80;99.90
7654;DHT22;3869;48.406;10.774;2023-06-24T01:14:50;17.70;99.90
7654;DHT22;3869;48.406;10.774;2023-06-24T01:17:21;17.80;99.90
7654;DHT22;3869;48.406;10.774;2023-06-24T01:20:00;17.70;99.90
7654;DHT22;3869;48.406;10.774;2023-06-24T01:22:48;17.70;99.90
7654;DHT22;3869;48.406;10.774;2023-06-24T01:25:34;17.60;99.90
7654;DHT22;3869;48.406;10.774;2023-06-24T01:28:23;17.60;99.90
7654;DHT22;3869;48.406;10.774;2023-06-24T01:33:54;17.60;99.90
7654;DHT22;3869;48.406;10.774;2023-06-24T01:36:28;17.60;99.90
7654;DHT22;3869;48.406;10.774;2023-06-24T01:39:02;17.70;99.90
7654;DHT22;3869;48.406;10.774;2023-06-24T01:41:34;17.70;99.90
7654;DHT22;3869;48.406;10.774;2023-06-24T01:44:04;17.70;99.90
7654;DHT22;3869;48.406;10.774;2023-06-24T01:46:32;17.60;99.90
7654;DHT22;3869;48.406;10.774;2023-06-24T01:49:03;17.50;99.90
7654;DHT22;3869;48.406;10.774;2023-06-24T01:51:34;17.50;99.90
7654;DHT22;3869;48.406;10.774;2023-06-24T01:54:07;17.50;99.90
7654;DHT22;3869;48.406;10.774;2023-06-24T01:56:39;17.50;99.90
7654;DHT22;3869;48.406;10.774;2023-06-24T01:59:10;17.50;99.90
7654;DHT22;3869;48.406;10.774;2023-06-24T02:01:39;17.50;99.90
7654;DHT22;3869;48.406;10.774;2023-06-24T02:04:09;17.50;99.90
7654;DHT22;3869;48.406;10.774;2023-06-24T02:06:40;17.50;99.90
7654;DHT22;3869;48.406;10.774;2023-06-24T02:09:10;17.50;99.90
7654;DHT22;3869;48.406;10.774;2023-06-24T02:11:39;17.40;99.90
7654;DHT22;3869;48.406;10.774;2023-06-24T02:14:07;17.30;99.90
7654;DHT22;3869;48.406;10.774;2023-06-24T02:16:37;17.30;99.90
7654;DHT22;3869;48.406;10.774;2023-06-24T02:19:11;17.40;99.90
7654;DHT22;3869;48.406;10.774;2023-06-24T02:21:41;17.40;99.90
7654;DHT22;3869;48.406;10.774;2023-06-24T02:24:10;17.30;99.90
7654;DHT22;3869;48.406;10.774;2023-06-24T02:26:39;17.20;99.90
7654;DHT22;3869;48.406;10.774;2023-06-24T02:29:09;17.20;99.90
7654;DHT22;3869;48.406;10.774;2023-06-24T02:31:38;17.00;99.90
7654;DHT22;3869;48.406;10.774;2023-06-24T02:34:06;17.00;99.90
7654;DHT22;3869;48.406;10.774;2023-06-24T02:36:35;17.00;99.90
7654;DHT22;3869;48.406;10.774;2023-06-24T02:39:04;17.00;99.90
7654;DHT22;3869;48.406;10.774;2023-06-24T02:41:32;17.00;99.90
7654;DHT22;3869;48.406;10.774;2023-06-24T02:44:00;17.00;99.90
7654;DHT22;3869;48.406;10.774;2023-06-24T02:46:29;17.10;99.90
7654;DHT22;3869;48.406;10.774;2023-06-24T02:48:58;17.10;99.90
7654;DHT22;3869;48.406;10.774;2023-06-24T02:51:27;17.20;99.90
7654;DHT22;3869;48.406;10.774;2023-06-24T02:53:57;17.20;99.90
7654;DHT22;3869;48.406;10.774;2023-06-24T02:56:26;17.30;99.90
7654;DHT22;3869;48.406;10.774;2023-06-24T02:58:55;17.30;99.90
7654;DHT22;3869;48.406;10.774;2023-06-24T03:01:23;17.30;99.90
7654;DHT22;3869;48.406;10.774;2023-06-24T03:03:54;17.30;99.90
7654;DHT22;3869;48.406;10.774;2023-06-24T03:06:22;17.30;99.90
7654;DHT22;3869;48.406;10.774;2023-06-24T03:08:51;17.30;99.90
7654;DHT22;3869;48.406;10.774;2023-06-24T03:11:20;17.30;99.90
7654;DHT22;3869;48.406;10.774;2023-06-24T03:13:49;17.20;99.90
7654;DHT22;3869;48.406;10.774;2023-06-24T03:16:17;17.20;99.90
7654;DHT22;3869;48.406;10.774;2023-06-24T03:18:45;17.20;99.90
7654;DHT22;3869;48.406;10.774;2023-06-24T03:21:13;17.20;99.90
7654;DHT22;3869;48.406;10.774;2023-06-24T03:23:41;17.20;99.90
7654;DHT22;3869;48.406;10.774;2023-06-24T03:26:10;17.20;99.90
7654;DHT22;3869;48.406;10.774;2023-06-24T03:28:39;17.20;99.90
7654;DHT22;3869;48.406;10.774;2023-06-24T03:31:07;17.20;99.90
7654;DHT22;3869;48.406;10.774;2023-06-24T03:33:35;17.10;99.90
7654;DHT22;3869;48.406;10.774;2023-06-24T03:36:03;17.20;99.90
7654;DHT22;3869;48.406;10.774;2023-06-24T03:38:31;17.20;99.90
7654;DHT22;3869;48.406;10.774;2023-06-24T03:40:59;17.10;99.90
7654;DHT22;3869;48.406;10.774;2023-06-24T03:43:27;17.10;99.90
7654;DHT22;3869;48.406;10.774;2023-06-24T03:45:56;17.10;99.90
7654;DHT22;3869;48.406;10.774;2023-06-24T03:48:26;17.10;99.90
7654;DHT22;3869;48.406;10.774;2023-06-24T03:50:54;17.10;99.90
7654;DHT22;3869;48.406;10.774;2023-06-24T03:53:22;17.10;99.90
7654;DHT22;3869;48.406;10.774;2023-06-24T03:55:50;17.10;99.90
7654;DHT22;3869;48.406;10.774;2023-06-24T03:58:18;17.10;99.90
7654;DHT22;3869;48.406;10.774;2023-06-24T04:00:48;17.10;99.90
7654;DHT22;3869;48.406;10.774;2023-06-24T04:03:17;17.10;99.90
7654;DHT22;3869;48.406;10.774;2023-06-24T04:05:45;17.10;99.90
7654;DHT22;3869;48.406;10.774;2023-06-24T04:08:13;17.10;99.90
7654;DHT22;3869;48.406;10.774;2023-06-24T04:10:41;17.10;99.90
7654;DHT22;3869;48.406;10.774;2023-06-24T04:13:10;17.00;99.90
7654;DHT22;3869;48.406;10.774;2023-06-24T04:15:38;17.00;99.90
7654;DHT22;3869;48.406;10.774;2023-06-24T04:18:06;17.00;99.90
7654;DHT22;3869;48.406;10.774;2023-06-24T04:20:35;17.00;99.90
7654;DHT22;3869;48.406;10.774;2023-06-24T04:23:04;17.00;99.90
7654;DHT22;3869;48.406;10.774;2023-06-24T04:25:35;16.90;99.90
7654;DHT22;3869;48.406;10.774;2023-06-24T04:28:04;16.90;99.90
7654;DHT22;3869;48.406;10.774;2023-06-24T04:30:32;16.90;99.90
7654;DHT22;3869;48.406;10.774;2023-06-24T04:33:02;16.90;99.90
7654;DHT22;3869;48.406;10.774;2023-06-24T04:35:30;16.90;99.90
7654;DHT22;3869;48.406;10.774;2023-06-24T04:38:00;16.90;99.90
7654;DHT22;3869;48.406;10.774;2023-06-24T04:40:28;17.00;99.90
7654;DHT22;3869;48.406;10.774;2023-06-24T04:42:57;17.00;99.90
7654;DHT22;3869;48.406;10.774;2023-06-24T04:45:25;17.00;99.90
7654;DHT22;3869;48.406;10.774;2023-06-24T04:47:53;17.00;99.90
7654;DHT22;3869;48.406;10.774;2023-06-24T04:50:21;17.00;99.90
7654;DHT22;3869;48.406;10.774;2023-06-24T04:52:52;17.00;99.90
7654;DHT22;3869;48.406;10.774;2023-06-24T04:55:22;17.00;99.90
7654;DHT22;3869;48.406;10.774;2023-06-24T04:57:50;17.00;99.90
7654;DHT22;3869;48.406;10.774;2023-06-24T05:00:18;17.10;99.90
7654;DHT22;3869;48.406;10.774;2023-06-24T05:02:49;17.00;99.90
7654;DHT22;3869;48.406;10.774;2023-06-24T05:05:19;17.00;99.90
7654;DHT22;3869;48.406;10.774;2023-06-24T05:07:47;17.00;99.90
7654;DHT22;3869;48.406;10.774;2023-06-24T05:10:16;17.10;99.90
7654;DHT22;3869;48.406;10.774;2023-06-24T05:12:45;17.20;99.90
7654;DHT22;3869;48.406;10.774;2023-06-24T05:15:13;17.30;99.90
7654;DHT22;3869;48.406;10.774;2023-06-24T05:17:42;17.40;99.90
7654;DHT22;3869;48.406;10.774;2023-06-24T05:20:11;17.50;99.90
7654;DHT22;3869;48.406;10.774;2023-06-24T05:22:39;17.50;99.90
7654;DHT22;3869;48.406;10.774;2023-06-24T05:25:07;17.60;99.90
7654;DHT22;3869;48.406;10.774;2023-06-24T05:27:35;17.60;99.90
7654;DHT22;3869;48.406;10.774;2023-06-24T05:30:06;17.70;99.90
7654;DHT22;3869;48.406;10.774;2023-06-24T05:32:34;17.70;99.90
7654;DHT22;3869;48.406;10.774;2023-06-24T05:35:02;17.80;99.90
7654;DHT22;3869;48.406;10.774;2023-06-24T05:37:30;17.80;99.90
7654;DHT22;3869;48.406;10.774;2023-06-24T05:39:58;17.90;99.90
7654;DHT22;3869;48.406;10.774;2023-06-24T05:42:28;17.90;99.90
7654;DHT22;3869;48.406;10.774;2023-06-24T05:44:56;17.90;99.90
7654;DHT22;3869;48.406;10.774;2023-06-24T05:47:25;17.90;99.90
7654;DHT22;3869;48.406;10.774;2023-06-24T05:49:53;18.00;99.90
7654;DHT22;3869;48.406;10.774;2023-06-24T05:52:21;18.00;99.90
7654;DHT22;3869;48.406;10.774;2023-06-24T05:54:49;18.00;99.90
7654;DHT22;3869;48.406;10.774;2023-06-24T05:57:17;18.00;99.90
7654;DHT22;3869;48.406;10.774;2023-06-24T05:59:45;18.20;99.90
7654;DHT22;3869;48.406;10.774;2023-06-24T06:02:13;18.20;99.90
7654;DHT22;3869;48.406;10.774;2023-06-24T06:04:43;18.30;99.90
7654;DHT22;3869;48.406;10.774;2023-06-24T06:07:11;18.40;99.90
7654;DHT22;3869;48.406;10.774;2023-06-24T06:09:39;18.40;99.90
7654;DHT22;3869;48.406;10.774;2023-06-24T06:12:08;18.40;99.90
7654;DHT22;3869;48.406;10.774;2023-06-24T06:14:36;18.50;99.90
7654;DHT22;3869;48.406;10.774;2023-06-24T06:17:04;18.50;99.90
7654;DHT22;3869;48.406;10.774;2023-06-24T06:19:32;18.50;99.90
7654;DHT22;3869;48.406;10.774;2023-06-24T06:22:02;18.50;99.90
7654;DHT22;3869;48.406;10.774;2023-06-24T06:24:30;18.50;99.90
7654;DHT22;3869;48.406;10.774;2023-06-24T06:26:58;18.50;99.90
7654;DHT22;3869;48.406;10.774;2023-06-24T06:29:26;18.60;99.90
7654;DHT22;3869;48.406;10.774;2023-06-24T06:31:54;18.60;99.90
7654;DHT22;3869;48.406;10.774;2023-06-24T06:34:24;18.70;99.90
7654;DHT22;3869;48.406;10.774;2023-06-24T06:36:52;18.80;99.90
7654;DHT22;3869;48.406;10.774;2023-06-24T06:39:21;18.80;99.90
7654;DHT22;3869;48.406;10.774;2023-06-24T06:41:49;18.90;99.90
7654;DHT22;3869;48.406;10.774;2023-06-24T06:44:17;19.00;99.90
7654;DHT22;3869;48.406;10.774;2023-06-24T06:46:45;18.90;99.90
7654;DHT22;3869;48.406;10.774;2023-06-24T06:49:13;18.70;99.90
7654;DHT22;3869;48.406;10.774;2023-06-24T06:51:41;18.70;99.90
7654;DHT22;3869;48.406;10.774;2023-06-24T06:54:09;18.90;99.90
7654;DHT22;3869;48.406;10.774;2023-06-24T06:56:38;19.00;99.90
7654;DHT22;3869;48.406;10.774;2023-06-24T06:59:07;19.10;99.90
7654;DHT22;3869;48.406;10.774;2023-06-24T07:01:35;19.10;99.90
7654;DHT22;3869;48.406;10.774;2023-06-24T07:04:03;19.10;99.90
7654;DHT22;3869;48.406;10.774;2023-06-24T07:06:31;19.10;99.90
7654;DHT22;3869;48.406;10.774;2023-06-24T07:09:00;19.20;99.90
7654;DHT22;3869;48.406;10.774;2023-06-24T07:11:28;19.30;99.90
7654;DHT22;3869;48.406;10.774;2023-06-24T07:13:58;19.40;99.90
7654;DHT22;3869;48.406;10.774;2023-06-24T07:16:26;19.40;99.90
7654;DHT22;3869;48.406;10.774;2023-06-24T07:18:54;19.50;99.90
7654;DHT22;3869;48.406;10.774;2023-06-24T07:21:21;19.60;99.90
7654;DHT22;3869;48.406;10.774;2023-06-24T07:23:50;19.60;99.90
7654;DHT22;3869;48.406;10.774;2023-06-24T07:26:18;19.60;99.90
7654;DHT22;3869;48.406;10.774;2023-06-24T07:28:46;19.70;99.90
7654;DHT22;3869;48.406;10.774;2023-06-24T07:31:35;19.80;99.90
7654;DHT22;3869;48.406;10.774;2023-06-24T07:34:03;19.70;99.90
7654;DHT22;3869;48.406;10.774;2023-06-24T07:36:32;19.80;99.90
7654;DHT22;3869;48.406;10.774;2023-06-24T07:39:00;19.80;99.90
7654;DHT22;3869;48.406;10.774;2023-06-24T07:41:28;19.90;99.90
7654;DHT22;3869;48.406;10.774;2023-06-24T07:43:56;19.90;99.90
7654;DHT22;3869;48.406;10.774;2023-06-24T07:46:24;19.90;99.90
7654;DHT22;3869;48.406;10.774;2023-06-24T07:48:55;19.90;99.90
7654;DHT22;3869;48.406;10.774;2023-06-24T07:51:23;20.00;99.90
7654;DHT22;3869;48.406;10.774;2023-06-24T07:53:51;20.00;99.90
7654;DHT22;3869;48.406;10.774;2023-06-24T07:56:19;20.00;99.90
7654;DHT22;3869;48.406;10.774;2023-06-24T07:58:47;20.00;99.90
7654;DHT22;3869;48.406;10.774;2023-06-24T08:01:15;20.00;99.90
7654;DHT22;3869;48.406;10.774;2023-06-24T08:03:43;20.10;99.90
7654;DHT22;3869;48.406;10.774;2023-06-24T08:06:13;20.10;99.90
7654;DHT22;3869;48.406;10.774;2023-06-24T08:08:41;20.00;99.90
7654;DHT22;3869;48.406;10.774;2023-06-24T08:11:08;20.00;99.90
7654;DHT22;3869;48.406;10.774;2023-06-24T08:13:36;20.00;99.90
7654;DHT22;3869;48.406;10.774;2023-06-24T08:16:05;20.10;99.90
7654;DHT22;3869;48.406;10.774;2023-06-24T08:18:33;20.10;99.90
7654;DHT22;3869;48.406;10.774;2023-06-24T08:21:00;20.10;99.90
7654;DHT22;3869;48.406;10.774;2023-06-24T08:23:30;20.10;99.90
7654;DHT22;3869;48.406;10.774;2023-06-24T08:25:58;20.20;99.90
7654;DHT22;3869;48.406;10.774;2023-06-24T08:28:42;20.20;99.90
7654;DHT22;3869;48.406;10.774;2023-06-24T08:31:10;20.30;99.90
7654;DHT22;3869;48.406;10.774;2023-06-24T08:33:38;20.30;99.90
7654;DHT22;3869;48.406;10.774;2023-06-24T08:36:06;20.40;99.90
7654;DHT22;3869;48.406;10.774;2023-06-24T08:38:36;20.50;99.90
7654;DHT22;3869;48.406;10.774;2023-06-24T08:41:04;20.60;99.90
7654;DHT22;3869;48.406;10.774;2023-06-24T08:43:32;20.70;99.90
7654;DHT22;3869;48.406;10.774;2023-06-24T08:46:00;20.80;99.90
7654;DHT22;3869;48.406;10.774;2023-06-24T08:48:29;20.80;99.90
7654;DHT22;3869;48.406;10.774;2023-06-24T08:51:00;20.90;99.90
7654;DHT22;3869;48.406;10.774;2023-06-24T08:53:29;20.90;99.90
7654;DHT22;3869;48.406;10.774;2023-06-24T08:55:58;21.00;99.90
7654;DHT22;3869;48.406;10.774;2023-06-24T08:58:26;21.00;99.90
7654;DHT22;3869;48.406;10.774;2023-06-24T09:00:54;21.00;99.90
7654;DHT22;3869;48.406;10.774;2023-06-24T09:03:23;21.10;99.90
7654;DHT22;3869;48.406;10.774;2023-06-24T09:05:51;21.20;99.90
7654;DHT22;3869;48.406;10.774;2023-06-24T09:08:19;21.30;99.90
7654;DHT22;3869;48.406;10.774;2023-06-24T09:10:53;21.40;99.90
7654;DHT22;3869;48.406;10.774;2023-06-24T09:13:27;21.40;99.90
7654;DHT22;3869;48.406;10.774;2023-06-24T09:16:11;21.50;99.90
7654;DHT22;3869;48.406;10.774;2023-06-24T09:18:40;21.50;99.90
7654;DHT22;3869;48.406;10.774;2023-06-24T09:21:10;21.50;99.90
7654;DHT22;3869;48.406;10.774;2023-06-24T09:23:38;21.50;99.90
7654;DHT22;3869;48.406;10.774;2023-06-24T09:26:10;21.40;99.90
7654;DHT22;3869;48.406;10.774;2023-06-24T09:28:40;21.40;99.90
7654;DHT22;3869;48.406;10.774;2023-06-24T09:31:09;21.30;99.90
7654;DHT22;3869;48.406;10.774;2023-06-24T09:33:40;21.20;99.90
7654;DHT22;3869;48.406;10.774;2023-06-24T09:36:11;21.10;99.90
7654;DHT22;3869;48.406;10.774;2023-06-24T09:38:42;21.00;99.90
7654;DHT22;3869;48.406;10.774;2023-06-24T09:41:11;21.00;99.90
7654;DHT22;3869;48.406;10.774;2023-06-24T09:43:42;20.90;99.90
7654;DHT22;3869;48.406;10.774;2023-06-24T09:46:12;21.10;99.90
7654;DHT22;3869;48.406;10.774;2023-06-24T09:48:40;21.20;99.90
7654;DHT22;3869;48.406;10.774;2023-06-24T09:51:08;21.40;99.90
7654;DHT22;3869;48.406;10.774;2023-06-24T09:53:37;21.50;99.90
7654;DHT22;3869;48.406;10.774;2023-06-24T09:56:07;21.70;99.90
7654;DHT22;3869;48.406;10.774;2023-06-24T09:58:36;21.90;99.90
7654;DHT22;3869;48.406;10.774;2023-06-24T10:01:06;22.00;99.90
7654;DHT22;3869;48.406;10.774;2023-06-24T10:03:35;22.10;99.90
7654;DHT22;3869;48.406;10.774;2023-06-24T10:06:05;22.10;99.70
7654;DHT22;3869;48.406;10.774;2023-06-24T10:08:34;22.20;99.70
7654;DHT22;3869;48.406;10.774;2023-06-24T10:11:02;22.40;99.90
7654;DHT22;3869;48.406;10.774;2023-06-24T10:13:30;22.60;99.40
7654;DHT22;3869;48.406;10.774;2023-06-24T10:15:58;22.60;98.80
7654;DHT22;3869;48.406;10.774;2023-06-24T10:18:34;22.80;99.00
7654;DHT22;3869;48.406;10.774;2023-06-24T10:21:03;22.90;97.70
7654;DHT22;3869;48.406;10.774;2023-06-24T10:23:38;22.80;97.10
7654;DHT22;3869;48.406;10.774;2023-06-24T10:26:08;22.80;96.90
7654;DHT22;3869;48.406;10.774;2023-06-24T10:31:51;22.90;96.90
7654;DHT22;3869;48.406;10.774;2023-06-24T10:34:24;23.00;96.50
7654;DHT22;3869;48.406;10.774;2023-06-24T10:36:54;23.20;96.30
7654;DHT22;3869;48.406;10.774;2023-06-24T10:42:45;23.40;96.70
7654;DHT22;3869;48.406;10.774;2023-06-24T10:45:19;23.40;96.20
7654;DHT22;3869;48.406;10.774;2023-06-24T10:47:49;23.30;96.40
7654;DHT22;3869;48.406;10.774;2023-06-24T10:50:21;23.20;95.90
7654;DHT22;3869;48.406;10.774;2023-06-24T10:52:51;23.10;95.90
7654;DHT22;3869;48.406;10.774;2023-06-24T10:55:23;23.00;95.30
7654;DHT22;3869;48.406;10.774;2023-06-24T10:57:51;22.90;94.90
7654;DHT22;3869;48.406;10.774;2023-06-24T11:00:21;23.00;94.70
7654;DHT22;3869;48.406;10.774;2023-06-24T11:02:49;23.10;94.60
7654;DHT22;3869;48.406;10.774;2023-06-24T11:05:17;23.20;94.10
7654;DHT22;3869;48.406;10.774;2023-06-24T11:07:47;23.30;94.20
7654;DHT22;3869;48.406;10.774;2023-06-24T11:10:15;23.40;94.00
7654;DHT22;3869;48.406;10.774;2023-06-24T11:12:43;23.40;93.40
7654;DHT22;3869;48.406;10.774;2023-06-24T11:15:13;23.50;93.20
7654;DHT22;3869;48.406;10.774;2023-06-24T11:17:41;23.70;93.40
7654;DHT22;3869;48.406;10.774;2023-06-24T11:20:11;23.80;94.10
7654;DHT22;3869;48.406;10.774;2023-06-24T11:22:41;23.90;93.90
7654;DHT22;3869;48.406;10.774;2023-06-24T11:25:16;23.90;92.20
7654;DHT22;3869;48.406;10.774;2023-06-24T11:27:44;23.90;91.80
7654;DHT22;3869;48.406;10.774;2023-06-24T11:30:13;24.00;91.90
7654;DHT22;3869;48.406;10.774;2023-06-24T11:32:43;24.10;92.00
7654;DHT22;3869;48.406;10.774;2023-06-24T11:35:12;24.30;92.50
7654;DHT22;3869;48.406;10.774;2023-06-24T11:37:42;24.30;91.60
7654;DHT22;3869;48.406;10.774;2023-06-24T11:40:11;24.40;91.70
7654;DHT22;3869;48.406;10.774;2023-06-24T11:42:41;24.50;91.20
7654;DHT22;3869;48.406;10.774;2023-06-24T11:45:12;24.40;91.10
7654;DHT22;3869;48.406;10.774;2023-06-24T11:47:42;24.40;91.10
7654;DHT22;3869;48.406;10.774;2023-06-24T11:50:10;24.40;91.20
7654;DHT22;3869;48.406;10.774;2023-06-24T11:52:39;24.40;90.90
7654;DHT22;3869;48.406;10.774;2023-06-24T11:55:12;24.50;91.10
7654;DHT22;3869;48.406;10.774;2023-06-24T11:57:57;24.50;89.30
7654;DHT22;3869;48.406;10.774;2023-06-24T12:00:27;24.50;90.10
7654;DHT22;3869;48.406;10.774;2023-06-24T12:02:56;24.60;88.00
7654;DHT22;3869;48.406;10.774;2023-06-24T12:05:27;24.60;88.70
7654;DHT22;3869;48.406;10.774;2023-06-24T12:07:57;24.60;86.40
7654;DHT22;3869;48.406;10.774;2023-06-24T12:10:26;24.60;85.90
7654;DHT22;3869;48.406;10.774;2023-06-24T12:12:57;24.70;86.00
7654;DHT22;3869;48.406;10.774;2023-06-24T12:15:26;24.80;86.60
7654;DHT22;3869;48.406;10.774;2023-06-24T12:17:54;25.00;89.40
7654;DHT22;3869;48.406;10.774;2023-06-24T12:20:24;25.10;89.80
7654;DHT22;3869;48.406;10.774;2023-06-24T12:23:00;25.20;88.20
7654;DHT22;3869;48.406;10.774;2023-06-24T12:25:28;25.20;88.40
7654;DHT22;3869;48.406;10.774;2023-06-24T12:27:58;25.20;86.80
7654;DHT22;3869;48.406;10.774;2023-06-24T12:30:27;25.20;88.90
7654;DHT22;3869;48.406;10.774;2023-06-24T12:32:55;25.30;88.40
7654;DHT22;3869;48.406;10.774;2023-06-24T12:35:24;25.30;86.60
7654;DHT22;3869;48.406;10.774;2023-06-24T12:37:53;25.30;87.10
7654;DHT22;3869;48.406;10.774;2023-06-24T12:40:21;25.30;84.80
7654;DHT22;3869;48.406;10.774;2023-06-24T12:42:49;25.40;86.50
7654;DHT22;3869;48.406;10.774;2023-06-24T12:45:18;25.50;86.90
7654;DHT22;3869;48.406;10.774;2023-06-24T12:47:46;25.60;86.80
7654;DHT22;3869;48.406;10.774;2023-06-24T12:50:14;25.70;85.80
7654;DHT22;3869;48.406;10.774;2023-06-24T12:52:42;25.80;84.90
7654;DHT22;3869;48.406;10.774;2023-06-24T12:55:11;25.70;83.40
7654;DHT22;3869;48.406;10.774;2023-06-24T12:57:42;25.70;84.10
7654;DHT22;3869;48.406;10.774;2023-06-24T13:00:11;25.80;83.60
7654;DHT22;3869;48.406;10.774;2023-06-24T13:02:41;25.80;84.10
7654;DHT22;3869;48.406;10.774;2023-06-24T13:05:09;25.90;84.70
7654;DHT22;3869;48.406;10.774;2023-06-24T13:07:37;25.80;82.00
7654;DHT22;3869;48.406;10.774;2023-06-24T13:10:06;25.70;82.80
7654;DHT22;3869;48.406;10.774;2023-06-24T13:12:35;25.80;83.30
7654;DHT22;3869;48.406;10.774;2023-06-24T13:15:04;25.80;83.30
7654;DHT22;3869;48.406;10.774;2023-06-24T13:17:32;25.80;81.30
7654;DHT22;3869;48.406;10.774;2023-06-24T13:20:01;25.80;80.70
7654;DHT22;3869;48.406;10.774;2023-06-24T13:22:31;25.90;82.50
7654;DHT22;3869;48.406;10.774;2023-06-24T13:24:59;26.00;83.00
7654;DHT22;3869;48.406;10.774;2023-06-24T13:27:27;26.10;83.70
7654;DHT22;3869;48.406;10.774;2023-06-24T13:29:55;26.10;82.70
7654;DHT22;3869;48.406;10.774;2023-06-24T13:32:23;26.20;82.00
7654;DHT22;3869;48.406;10.774;2023-06-24T13:34:51;26.30;82.50
7654;DHT22;3869;48.406;10.774;2023-06-24T13:37:20;26.30;83.60
7654;DHT22;3869;48.406;10.774;2023-06-24T13:39:48;26.20;83.30
7654;DHT22;3869;48.406;10.774;2023-06-24T13:42:16;26.00;82.50
7654;DHT22;3869;48.406;10.774;2023-06-24T13:44:44;25.80;82.90
7654;DHT22;3869;48.406;10.774;2023-06-24T13:47:12;25.60;81.90
7654;DHT22;3869;48.406;10.774;2023-06-24T13:49:40;25.60;83.20
7654;DHT22;3869;48.406;10.774;2023-06-24T13:52:08;25.60;83.40
7654;DHT22;3869;48.406;10.774;2023-06-24T13:54:38;25.60;84.10
7654;DHT22;3869;48.406;10.774;2023-06-24T13:57:06;25.50;83.60
7654;DHT22;3869;48.406;10.774;2023-06-24T13:59:34;25.30;83.90
7654;DHT22;3869;48.406;10.774;2023-06-24T14:02:02;25.20;84.10
7654;DHT22;3869;48.406;10.774;2023-06-24T14:04:30;25.20;85.80
7654;DHT22;3869;48.406;10.774;2023-06-24T14:06:58;25.20;83.10
7654;DHT22;3869;48.406;10.774;2023-06-24T14:09:26;25.30;85.00
7654;DHT22;3869;48.406;10.774;2023-06-24T14:11:56;25.40;83.40
7654;DHT22;3869;48.406;10.774;2023-06-24T14:14:24;25.40;81.70
7654;DHT22;3869;48.406;10.774;2023-06-24T14:16:52;25.40;82.10
7654;DHT22;3869;48.406;10.774;2023-06-24T14:19:20;25.50;82.80
7654;DHT22;3869;48.406;10.774;2023-06-24T14:21:51;25.50;82.10
7654;DHT22;3869;48.406;10.774;2023-06-24T14:24:20;25.50;82.50
7654;DHT22;3869;48.406;10.774;2023-06-24T14:26:47;25.50;81.90
7654;DHT22;3869;48.406;10.774;2023-06-24T14:29:17;25.50;83.00
7654;DHT22;3869;48.406;10.774;2023-06-24T14:31:45;25.50;84.90
7654;DHT22;3869;48.406;10.774;2023-06-24T14:34:14;25.50;84.30
7654;DHT22;3869;48.406;10.774;2023-06-24T14:36:42;25.50;84.10
7654;DHT22;3869;48.406;10.774;2023-06-24T14:39:13;25.40;81.90
7654;DHT22;3869;48.406;10.774;2023-06-24T14:41:41;25.40;83.10
7654;DHT22;3869;48.406;10.774;2023-06-24T14:44:10;25.50;82.80
7654;DHT22;3869;48.406;10.774;2023-06-24T14:46:39;25.60;83.30
7654;DHT22;3869;48.406;10.774;2023-06-24T14:49:07;25.50;81.80
7654;DHT22;3869;48.406;10.774;2023-06-24T14:51:35;25.60;82.00
7654;DHT22;3869;48.406;10.774;2023-06-24T14:54:03;25.60;82.80
7654;DHT22;3869;48.406;10.774;2023-06-24T14:56:31;25.40;82.00
7654;DHT22;3869;48.406;10.774;2023-06-24T14:59:00;25.30;81.90
7654;DHT22;3869;48.406;10.774;2023-06-24T15:01:28;25.20;84.90
7654;DHT22;3869;48.406;10.774;2023-06-24T15:03:57;25.10;82.60
7654;DHT22;3869;48.406;10.774;2023-06-24T15:06:25;25.00;83.40
7654;DHT22;3869;48.406;10.774;2023-06-24T15:08:53;24.90;83.50
7654;DHT22;3869;48.406;10.774;2023-06-24T15:11:21;25.00;83.90
7654;DHT22;3869;48.406;10.774;2023-06-24T15:13:49;25.00;82.60
7654;DHT22;3869;48.406;10.774;2023-06-24T15:16:17;25.00;81.80
7654;DHT22;3869;48.406;10.774;2023-06-24T15:18:46;25.10;83.80
7654;DHT22;3869;48.406;10.774;2023-06-24T15:21:15;25.00;82.20
7654;DHT22;3869;48.406;10.774;2023-06-24T15:24:00;24.90;82.80
7654;DHT22;3869;48.406;10.774;2023-06-24T15:26:28;24.90;84.80
7654;DHT22;3869;48.406;10.774;2023-06-24T15:28:56;24.80;84.90
7654;DHT22;3869;48.406;10.774;2023-06-24T15:31:24;24.70;84.90
7654;DHT22;3869;48.406;10.774;2023-06-24T15:33:53;24.60;85.10
7654;DHT22;3869;48.406;10.774;2023-06-24T15:36:22;24.60;85.00
7654;DHT22;3869;48.406;10.774;2023-06-24T15:38:53;24.60;85.60
7654;DHT22;3869;48.406;10.774;2023-06-24T15:41:22;24.60;83.70
7654;DHT22;3869;48.406;10.774;2023-06-24T15:43:50;24.70;83.00
7654;DHT22;3869;48.406;10.774;2023-06-24T15:46:18;24.70;82.60
7654;DHT22;3869;48.406;10.774;2023-06-24T15:48:46;24.80;83.40
7654;DHT22;3869;48.406;10.774;2023-06-24T15:51:14;24.80;83.00
7654;DHT22;3869;48.406;10.774;2023-06-24T15:53:44;24.80;82.10
7654;DHT22;3869;48.406;10.774;2023-06-24T15:56:11;24.80;81.70
7654;DHT22;3869;48.406;10.774;2023-06-24T15:58:39;24.80;81.80
7654;DHT22;3869;48.406;10.774;2023-06-24T16:01:07;24.90;83.10
7654;DHT22;3869;48.406;10.774;2023-06-24T16:03:35;24.90;82.70
7654;DHT22;3869;48.406;10.774;2023-06-24T16:06:06;24.90;82.70